x

9439040 - Astoria, Or (asto3) Weather Station

6:54 - Wed 1st Apr 2015 All times are PDT. -7 hours from GMT.

  • Wind
    6mph, 7mph gusts
  • Sea Temp 51°f
  • Aire Temp 43°f
  • Sea Pressure 1026.7mb
  • 9439040 - Astoria, Or
  • 9439040 - Astoria, Or

More Historic Weather Station data

Upgrade to MSW Pro to gain access to the past 30 days of data for over 8000 Wavebouys and Weather Stations around the globe.

Join Pro

Comparision Forecast

View Surf forecast
   
mié 04/01 6:54 6 7 mph 1026.7mb 51f 43f
6:48 6 7 mph 1026.8mb 51f 43f
6:42 5 7 mph 1026.7mb 51f 43f
6:36 5 8 mph 1026.6mb 51f 43f
6:30 6 7 mph 1026.7mb 51f 43f
6:24 6 8 mph 1026.8mb 51f 43f
6:18 5 7 mph 1026.7mb 51f 43f
6:12 5 7 mph 1026.7mb 51f 43f
6:06 3 7 mph 1026.7mb 51f 43f
6:00 3 6 mph 1026.7mb 51f 43f
5:54 2 3 mph 1026.7mb 51f 43f
5:48  -  3 mph 1026.6mb 51f 43f
5:42 5 10 mph 1026.6mb 51f 43f
5:36 7 11 mph 1026.6mb 51f 43f
5:30 9 13 mph 1026.5mb 51f 43f
5:24 11 17 mph 1026.6mb 51f 43f
5:18 10 16 mph 1026.6mb 51f 43f
5:12 3 5 mph 1026.4mb 51f 43f
5:06 3 5 mph 1026.3mb 51f 43f
5:00  -  2 mph 1026.3mb 51f 43f
4:54  -  1 mph 1026.3mb 51f 42f
4:48 1 2 mph 1026.4mb 51f 42f
4:42 2 3 mph 1026.3mb 51f 42f
4:36 3
mph
1026.3mb 51f 42f
4:30 5 7 mph 1026.3mb 52f 42f
4:24 5 6 mph 1026.2mb 52f 42f
4:18 6 7 mph 1026.2mb 52f 42f
4:12 5 6 mph 1026.2mb 52f 42f
4:06 5 6 mph 1026.2mb 51f 42f
4:00 5 6 mph 1026.1mb 52f 43f
3:54 2 6 mph 1026.1mb 52f 43f
3:48 5 6 mph 1026.1mb 52f 43f
3:42 5 6 mph 1026.1mb 52f 43f
3:36 3 5 mph 1026.1mb 52f 44f
3:30 2 3 mph 1026.1mb 52f 44f
3:24 2 3 mph 1026.1mb 52f 44f
3:18 2 5 mph 1026.1mb 52f 44f
3:12 1 2 mph 1026.1mb 52f 44f
3:06 2 5 mph 1026.2mb 52f 44f
3:00 3 5 mph 1026.2mb 52f 44f
2:54 3
mph
1026.2mb 52f 44f
2:48  -  mph - - 44f
2:42  -  mph - - 44f
2:36  -  mph - - 44f
2:30 5 8 mph 1026.3mb 52f 45f
2:24 1 7 mph 1026.3mb 52f 45f
2:18 5 10 mph 1026.2mb 52f 44f
2:12 7 11 mph 1026.1mb 52f 45f
2:06 6 13 mph 1026mb 52f 44f
2:00 6 9 mph 1026mb 52f 44f
1:54 5 9 mph 1026.1mb 52f 44f
1:48 3 6 mph 1026mb 52f 44f
1:42 5 7 mph 1026mb 52f 44f
1:36 5 7 mph 1026mb 52f 44f
1:30 3 7 mph 1026mb 52f 44f
1:24 6 7 mph 1026mb 52f 44f
1:18 5 8 mph 1025.9mb 52f 44f
1:12 3
mph
1026mb 52f 44f
1:06 3 5 mph 1025.9mb 52f 44f
1:00 3 5 mph 1025.9mb 52f 45f
12:54 2 5 mph 1025.9mb 52f 45f
12:48 3 5 mph 1025.8mb 52f 45f
12:42 5 6 mph 1025.8mb 52f 45f
12:36 2
mph
1025.8mb 52f 46f
12:30 1 5 mph 1025.8mb 52f 47f
12:24 6 7 mph 1025.8mb 52f 47f
12:18 2 3 mph 1025.8mb 52f 47f
12:12 2 3 mph 1025.6mb 52f 47f
12:06 2 3 mph 1025.6mb 52f 47f
12:00 2
mph
1025.6mb 52f 47f
mar 03/31 11:54  -  2 mph 1025.7mb 52f 47f
11:48  -  1 mph - - -
11:42 1 2 mph - - -
11:36 2 5 mph - - -
11:30 3 6 mph 1025.6mb 52f 47f
11:24 5 6 mph 1025.6mb 52f 47f
11:18 3
mph
1025.6mb 52f 46f
11:12  -  2 mph 1025.5mb 52f 47f
11:06 1 5 mph 1025.4mb 52f 47f
11:00 5 6 mph 1025.3mb 52f 48f
10:54 2 3 mph 1025.3mb 52f 47f
10:48  -  2 mph 1025.2mb 52f 47f
10:42 2
mph
1025.1mb 52f 47f
10:36  -  2 mph 1025.2mb 52f 47f
10:30 2 3 mph 1025.1mb 52f 47f
10:24 2 5 mph 1025.1mb 52f 49f
10:18 5 6 mph 1025.1mb 52f 49f
10:12 6 8 mph 1025mb 52f 49f
10:06 7 9 mph 1025mb 52f 49f
10:00 7 10 mph 1024.9mb 52f 49f
9:54 9 10 mph 1024.9mb 52f 49f
9:48 7 9 mph 1024.9mb 52f 49f
9:42 7 8 mph 1024.8mb 52f 49f
9:36 5 7 mph 1024.7mb 52f 49f
9:30 6 14 mph 1024.7mb 52f 48f
9:24 10 17 mph 1024.8mb 52f 49f
9:18 7 9 mph 1024.7mb 52f 50f
9:12 3 6 mph 1024.5mb 52f 49f
9:06 5 6 mph 1024.5mb 52f 49f
9:00 5 6 mph 1024.4mb 52f 49f
8:54 5 7 mph 1024.3mb 52f 49f
8:48 5 10 mph 1024.2mb 52f 49f
8:42 7 9 mph 1024.2mb 52f 49f
8:36 6 8 mph 1024.2mb 52f 49f
8:30 6 8 mph 1024.1mb 52f 49f
8:24 6 10 mph 1024mb 52f 49f
8:18 8 11 mph 1024mb 52f 50f
8:12 9 13 mph 1023.9mb 52f 50f
8:06 10 15 mph 1023.8mb 52f 50f
8:00 10 13 mph 1023.7mb 52f 50f
7:54 9 11 mph 1023.7mb 52f 50f
7:48 9 13 mph 1023.7mb 52f 50f
7:42 7 11 mph 1023.6mb 52f 50f
7:36 10 13 mph 1023.6mb 52f 50f
7:30 10 14 mph 1023.6mb 52f 50f
7:24 13 15 mph 1023.7mb 52f 50f
7:18 13 14 mph 1023.7mb 52f 50f
7:12 10 14 mph 1023.6mb 52f 50f
7:06 11 14 mph 1023.6mb 53f 50f
7:00 11 14 mph 1023.6mb 53f 50f
6:54 13 16 mph 1023.6mb 53f 50f
6:48 14 17 mph 1023.6mb 53f 50f
6:42 14 16 mph 1023.6mb 53f 50f
6:36 13 16 mph 1023.6mb 53f 50f
6:30 14 18 mph 1023.6mb 53f 50f
6:24 16 18 mph 1023.6mb 59f -
6:18  -  mph 1023.5mb 59f -
5:48 15 20 mph 1023.5mb 53f 51f
5:42 17 20 mph 1023.5mb 52f 50f
5:36 14 15 mph 1023.5mb 52f 50f
5:30 11 14 mph 1023.4mb 52f 50f
5:24 10 14 mph 1023.3mb 52f 50f
5:18 13 14 mph 1023.3mb 52f 49f
5:12 11 13 mph 1023.2mb 52f 50f
5:06 10 14 mph 1023.2mb 52f 50f
5:00 10 16 mph 1023.2mb 52f 50f
4:54 14 16 mph 1023.2mb 52f 49f
4:48 13 24 mph 1023.2mb 52f 49f
4:42 20 28 mph 1023.3mb 52f 48f
4:36 18 24 mph 1023.3mb 52f 50f
4:00 15 20 mph 1023.1mb 52f 50f
3:54 16 18 mph 1023.1mb 52f 50f
3:48 14 17 mph 1023.1mb 52f 50f
3:42 13 15 mph 1023.1mb 52f 50f
3:36 13 15 mph 1023.1mb 52f 51f
3:30 10 15 mph 1023mb 52f 50f
3:24 11 16 mph 1023mb 52f 50f
3:18 13 15 mph 1023mb 52f 50f
3:12 11 14 mph 1023mb 52f 50f
3:06 10 13 mph 1022.9mb 52f 50f
3:00 10 14 mph 1022.9mb 52f 50f
2:54 10 13 mph 1022.9mb 52f 49f
2:48 10 11 mph 1022.9mb 52f 49f
2:42 10 13 mph 1022.9mb 52f 49f
2:36 11 13 mph 1022.9mb 52f 49f
2:30 9 13 mph 1022.9mb 52f 48f
2:24 11 14 mph 1022.9mb 52f 48f
2:18 11 15 mph 1022.9mb 52f 48f
2:12 13 20 mph 1022.9mb 52f 48f
2:06 17 23 mph 1022.8mb 52f 48f
2:00 16 20 mph 1022.5mb 52f 49f
1:54 17 24 mph 1022.4mb 52f 49f
1:48 16 21 mph 1022.3mb 52f 50f
1:42 16 20 mph 1022.2mb 52f 51f
1:36 13 20 mph 1022.2mb 52f 51f
1:30 14 17 mph 1022.2mb 52f 51f
1:24 15 18 mph 1022.1mb 52f 51f
1:18 13 16 mph 1022.1mb 52f 51f
1:12 13 17 mph 1022mb 51f 51f
1:06 11 17 mph 1021.9mb 52f 51f
1:00 13 16 mph 1021.9mb 52f 51f
12:54 14 17 mph 1021.9mb 52f 51f
12:48 14 17 mph 1021.9mb 52f 51f
12:42 13 17 mph 1021.8mb 52f 51f
12:36 14 20 mph 1021.7mb 52f 51f
12:30 13 17 mph 1021.7mb 52f 51f
12:24 14 16 mph 1021.6mb 52f 51f
12:18 13 15 mph 1021.6mb 52f 51f
12:12 13 16 mph 1021.5mb 52f 51f
12:06 13 16 mph 1021.5mb 52f 50f
12:00 14 17 mph 1021.5mb 52f 50f
11:54 14 17 mph 1021.5mb 52f 50f
11:48 8 10 mph 1021.4mb 52f 51f
11:42 7 11 mph 1021.4mb 52f 51f
11:36 9 13 mph 1021.4mb 52f 51f
11:30 8 10 mph 1021.3mb 52f 50f
11:24 8 11 mph 1021.3mb 52f 50f
11:18 8 9 mph 1021.2mb 52f 50f
11:12 7 10 mph 1021.1mb 52f 50f
11:06 8 11 mph 1021.1mb 52f 50f
11:00 9 10 mph 1021.1mb 52f 50f
10:54 8 10 mph 1021mb 52f 50f
10:48 7 10 mph 1020.9mb 52f 49f
10:42 7 8 mph 1020.8mb 52f 49f
10:36 7 10 mph 1020.8mb 52f 49f
10:30 6 8 mph 1020.7mb 52f 48f
10:24 7 11 mph 1020.7mb 52f 48f
10:18 7 10 mph 1020.6mb 52f 48f
10:12 6 8 mph 1020.5mb 52f 49f
10:06 2 5 mph 1020.4mb 51f 49f
10:00 5 6 mph 1020.3mb 51f 48f
9:54 6 8 mph 1020.2mb 51f 48f
9:48 7 9 mph 1020.2mb 51f 48f
9:42 9 13 mph 1020.1mb 51f 48f
9:36 10 17 mph 1020.1mb 51f 48f
9:30 9 15 mph 1020mb 51f 49f
9:24 5 7 mph 1019.7mb 51f 50f
9:18 5 7 mph 1019.6mb 51f 50f
9:12 6 8 mph 1019.6mb 51f 50f
9:06 7 8 mph 1019.4mb 51f 50f
9:00 6 8 mph 1019.3mb 51f 50f
8:54 6 8 mph 1019.3mb 51f 50f
8:48 7 9 mph 1019.3mb 51f 50f
8:42 8 9 mph 1019.3mb 51f 50f
8:36 8 10 mph 1019.2mb 51f 50f
8:30 7 9 mph 1019.1mb 51f 49f
8:24 6 7 mph 1019.1mb 51f 49f
8:18 5 7 mph 1019mb 51f 48f
8:12 3 6 mph 1019mb 51f 48f
8:06 1 3 mph 1019mb 51f 47f
8:00 1 2 mph 1019mb 51f 47f
7:54 2
mph
1019mb 51f 47f
7:48 1 5 mph 1019mb 51f 47f
7:42 2 5 mph 1018.9mb 51f 47f
7:36 3 6 mph 1018.9mb 51f 47f
7:30 3 5 mph 1018.9mb 51f 46f
7:24  -  3 mph 1018.9mb 51f 47f
7:18 1 2 mph 1018.8mb 51f 47f
7:12 1 2 mph 1018.7mb 51f 46f
7:06 1 2 mph 1018.7mb 51f 46f
7:00  -  2 mph 1018.6mb 51f 48f
6:54 2 3 mph 1018.5mb 51f 48f
6:48 2 5 mph 1018.5mb 51f 48f
6:42 5 7 mph 1018.5mb 51f 47f
6:36 9 21 mph 1018.5mb 51f 47f
6:30 9 17 mph 1018.5mb 51f 49f
6:24 6 8 mph 1018.2mb 51f 49f
6:18 7 8 mph 1018.1mb 51f 49f
6:12 6 7 mph 1018.1mb 51f 49f
6:06 5 7 mph 1018.1mb 51f 48f
6:00 5 7 mph 1018mb 51f 48f
5:54 6 7 mph 1018mb 51f 48f
5:48 6 8 mph 1018mb 51f 48f
5:42 6 8 mph 1017.9mb 51f 48f
5:36 6 9 mph 1017.9mb 51f 48f
5:30 8 10 mph 1017.9mb 51f 48f
5:24 11 20 mph 1017.8mb 51f 48f
5:18 18 22 mph 1017.7mb 51f 49f
5:12 10 14 mph 1017.7mb 51f 50f
5:06 10 14 mph 1017.6mb 51f 50f
5:00 11 14 mph 1017.6mb 51f 50f
4:54 10 14 mph 1017.5mb 51f 50f
4:48 14 16 mph 1017.5mb 51f 50f
4:42 13 15 mph 1017.4mb 51f 50f
4:36 5 8 mph 1017.3mb 51f 49f
4:30 8 11 mph 1017.3mb 51f 50f
4:24 6 7 mph 1017.3mb 51f 49f
4:18 7 10 mph 1017.3mb 51f 50f
4:12 9 11 mph 1017.2mb 51f 50f
4:06 8 10 mph 1017.2mb 51f 50f
4:00 8 13 mph 1017.2mb 51f 50f
3:54 13 14 mph 1017.1mb 51f 50f
3:48 10 13 mph 1017.1mb 51f 50f
3:42 11 13 mph 1017.1mb 51f 50f
3:36 9 13 mph 1017mb 51f 50f
3:30 10 13 mph 1017mb 51f 50f
3:24 11 14 mph 1016.9mb 51f 50f
3:18 10 13 mph 1016.9mb 51f 50f
3:12 11 15 mph 1016.9mb 52f 50f
3:06 10 14 mph 1016.9mb 52f 50f
3:00 11 14 mph 1016.9mb 52f 50f
2:54 9 11 mph 1016.8mb 52f 49f
2:48 9 14 mph 1016.9mb 52f 49f
2:42 11 15 mph 1016.8mb 52f 49f
2:36 13 15 mph 1016.8mb 52f 49f
2:30 13 15 mph 1016.7mb 52f 50f
2:24 10 14 mph 1016.7mb 52f 49f
2:18 9 11 mph 1016.6mb 52f 49f
2:12 10 13 mph 1016.5mb 52f 49f
2:06 8 10 mph 1016.4mb 52f 49f
2:00 8 9 mph 1016.2mb 52f 49f
1:54 8 10 mph 1016.2mb 52f 49f
1:48 9 13 mph 1016.3mb 52f 49f
1:42 9 13 mph 1016.3mb 52f 49f
1:36 9 13 mph 1016.2mb 51f 49f
1:30 10 14 mph 1016.2mb 51f 49f
1:24 11 14 mph 1016.1mb 52f 49f
1:18 9 15 mph 1016mb 52f 49f
1:12 13 17 mph 1016mb 52f 49f
1:06 13 15 mph 1015.8mb 52f 49f
1:00 9 14 mph 1015.6mb 52f 49f
12:54 9 14 mph 1015.5mb 52f 49f
12:48 10 14 mph 1015.5mb 52f 49f
12:42 7 9 mph 1015.4mb 52f 49f
12:36 10 15 mph 1015.2mb 52f 49f
12:30 10 15 mph 1015mb 52f 49f
12:24 14 17 mph 1014.9mb 52f 49f
12:18 13 16 mph 1014.7mb 52f 49f
12:12 15 18 mph 1014.6mb 52f 49f
12:06 16 23 mph 1014.5mb 52f 49f
12:00 17 22 mph 1014.4mb 52f 49f
lun 03/30 11:36 20 24 mph 1013.4mb 52f 51f
11:24 14 21 mph 1013.1mb 52f 52f
11:06 9 15 mph 1013mb 52f 52f
10:54 5 9 mph 1012.6mb 52f 52f
10:48 6 9 mph 1012.6mb 52f 52f
10:42 6 8 mph 1012.7mb 52f 52f
10:36 6 9 mph 1012.8mb 52f 52f
10:30 8 10 mph 1012.9mb 52f 53f
10:24 5 7 mph 1012.9mb 52f 53f
10:18 5 6 mph 1013mb 52f 53f
10:12 3 6 mph 1013.1mb 52f 53f
10:06 5 6 mph 1013mb 52f 54f
10:00 6 9 mph 1012.9mb 52f 54f
9:54 7 9 mph 1013mb 52f 55f
9:48 7 11 mph - - -
9:42 7 9 mph 1013mb 52f 55f
9:36 8 13 mph 1013mb 52f 55f
9:30 6 10 mph 1013mb 52f 55f
9:24 7 8 mph 1013.1mb 52f 55f
9:18 7 11 mph 1013.1mb 52f 55f
9:12 5 8 mph 1013.2mb 52f 54f
8:54 5 7 mph 1013.4mb 52f 54f
8:48 6
mph
1013.4mb 52f 54f
8:42 5 6 mph 1013.4mb 52f 54f
8:36 3 5 mph 1013.3mb 52f 54f
8:30 2 3 mph 1013.4mb 52f 54f
8:24 2 6 mph 1013.5mb 52f 54f
8:18 5 7 mph 1013.6mb 52f 54f
8:12 6 7 mph 1013.5mb 52f 55f
8:06 6 9 mph 1013.5mb 52f 55f
8:00 5 9 mph 1013.4mb 52f 55f
7:54 6 8 mph 1013.4mb 52f 55f
7:48 7 9 mph 1013.5mb 52f 55f
7:42 8 11 mph 1013.8mb 52f 55f
7:36 8 15 mph 1013.9mb 52f 55f
7:30 7 14 mph 1014mb 52f 55f
7:24 9 14 mph 1014.1mb 52f 55f
7:06 14 21 mph 1014.2mb 52f 55f
7:00 15 23 mph 1014.1mb 52f 55f
6:48 11 22 mph 1014.3mb 52f 54f
6:42 17 23 mph 1014.5mb 52f 55f
6:36 21 26 mph 1014.4mb 52f 55f
6:30 15 24 mph 1014.5mb 52f 55f
6:24 14 25 mph 1014.6mb 52f 55f
6:18 20 24 mph 1014.6mb 52f 55f
6:12 17 26 mph 1014.6mb 52f 56f
6:00 13 16 mph 1014.5mb - -
5:54 14 21 mph 1014.6mb 52f 55f
5:48 11 17 mph 1014.6mb 52f 55f
5:42 13 17 mph 1014.7mb 52f 55f
5:36 15 20 mph 1014.8mb 52f 54f
5:30 15 18 mph 1014.9mb 52f 54f
5:24 14 20 mph 1015mb 52f 55f
5:06 13 20 mph 1015mb 52f 55f
5:00 13 16 mph 1015mb 52f 55f
4:54 10 16 mph 1015.1mb 52f 55f
4:48 14 18 mph 1015.1mb 52f 55f
4:42 13 17 mph 1015.3mb 52f 55f
4:36 11 15 mph 1015.2mb 52f 55f
4:30 10 15 mph 1015.3mb 52f 54f
4:24 9 11 mph 1015.4mb 51f 54f
4:18 10 11 mph 1015.5mb 51f 54f
4:12 9
mph
1015.5mb 51f 54f
4:06 8 9 mph 1015.5mb 52f 54f
4:00 5 6 mph 1015.5mb 52f 54f
3:54 6 9 mph 1015.7mb 52f 54f
3:48 6 8 mph 1015.7mb 52f 54f
3:42 7 10 mph 1015.9mb 52f 54f
3:36 5 6 mph 1016mb 52f 54f
3:30 6 9 mph 1016.1mb 51f 54f
3:24 6 9 mph 1016.2mb 51f 54f
3:18 7 13 mph 1016.4mb 51f 54f
3:12 11 14 mph 1016.5mb 51f 54f
3:06 11 16 mph 1016.5mb 51f 53f
3:00 8 9 mph 1016.7mb 51f 54f
2:54 8 11 mph 1016.7mb 51f 54f
2:48 8 11 mph 1016.7mb 51f 54f
2:42 8 10 mph 1016.8mb 51f 53f
2:36 8 10 mph 1016.9mb 51f 53f
2:30 7 9 mph 1017.1mb 51f 53f
2:24 7 8 mph 1017.1mb 51f 53f
2:18 6 8 mph 1017.2mb 51f 53f
2:12 5 7 mph 1017.2mb 51f 54f
2:06 6 8 mph 1017.4mb 51f 54f
2:00 6 8 mph 1017.5mb 51f 54f
1:54 6 7 mph 1017.6mb 51f 54f
1:48 6
mph
1017.7mb 51f 53f
1:42 3 6 mph 1017.5mb 51f 53f
1:36 3 5 mph 1017.7mb 51f 54f
1:30 3 5 mph 1017.7mb 51f 53f
1:24 5 6 mph 1017.8mb 51f 53f
1:18 6
mph
1017.8mb 51f 53f
1:12 6
mph
1017.9mb 51f 53f
1:06 5 6 mph 1018.1mb 51f 53f
1:00 3 5 mph 1018.2mb 51f 54f
12:54 3 5 mph 1018.2mb 51f 54f
12:48 3 5 mph 1018.3mb 51f 54f
12:42 3 5 mph 1018.4mb 51f 54f
12:36 3 5 mph 1018.5mb 51f 54f
12:30 5 7 mph 1018.6mb 51f 54f
12:24 6 7 mph 1018.7mb 51f 53f
12:18 6 8 mph 1018.9mb 51f 53f
12:12 9 10 mph 1018.9mb 51f 52f
12:06 7 10 mph 1019mb 51f 53f
12:00 9 10 mph 1019mb 51f 53f
11:54 8 10 mph 1019mb 51f 53f
11:48 8 11 mph 1019.1mb 51f 53f
11:42 8 11 mph 1019.1mb 51f 53f
11:36 7 9 mph 1019.1mb 51f 53f
11:30 3 6 mph 1019.1mb 51f 53f
11:24 3 8 mph 1019.2mb 51f 53f
11:06 6 7 mph 1019.2mb 51f 52f
11:00 6 9 mph 1019.3mb 51f 52f
10:54 8 10 mph 1019.4mb 51f 52f
10:48 7 8 mph 1019.4mb 51f 52f
10:42 7 9 mph 1019.4mb 51f 52f
10:36 8 9 mph 1019.4mb 51f 52f
10:30 6 8 mph 1019.4mb 51f 52f
10:24 5 6 mph 1019.6mb 51f 52f
10:18 3 6 mph - - -
10:12 3 5 mph 1019.7mb 51f 52f
10:06 1 5 mph 1019.8mb 51f 52f
10:00 2 3 mph 1019.8mb 51f 52f
9:54  -  3 mph 1019.9mb 51f 52f
9:48 2 3 mph 1019.9mb - -
9:42 1 2 mph 1020.1mb 51f 52f
9:36 2 3 mph 1020.1mb 51f 52f
9:30  -  2 mph 1020.1mb 51f 52f
9:24 1 5 mph 1020mb 51f 52f
9:18 3 7 mph 1020.1mb 51f 52f
9:12 1 6 mph 1020.1mb 51f 52f
9:06 5 7 mph 1020.3mb 51f 51f
9:00 2 5 mph 1020.2mb 51f 51f
8:54 5 6 mph 1020.3mb 51f 51f
8:48  -  2 mph 1020.2mb 51f 51f
8:42  -  3 mph 1020.2mb 51f 51f
8:36 1 3 mph 1020.2mb 51f 51f
8:30 2 6 mph 1020.2mb 51f 51f
8:24 2 6 mph 1020.3mb 51f 51f
8:18 2 6 mph 1020.3mb 51f 51f
8:12 5 7 mph 1020.2mb 51f 51f
8:06 5 6 mph 1020.2mb 51f 51f
8:00 3 6 mph 1020.2mb 51f 51f
7:48 1 3 mph 1020.3mb 51f 51f
7:42 2 5 mph - - -
7:30 2 5 mph 1020.4mb 51f 51f
6:24 3 5 mph 1020.4mb 51f 51f
6:18 3 5 mph 1020.4mb 51f 51f
6:12 2 5 mph 1020.5mb 51f 51f
6:06 3
mph
1020.6mb 51f 51f
6:00 3 5 mph 1020.6mb 51f 51f
5:54 2 5 mph 1020.6mb 51f 51f
5:48 3 5 mph 1020.7mb 51f 51f
5:42 2 3 mph 1020.7mb 51f 51f
5:36 5 6 mph 1020.8mb 51f 51f
5:30 5 6 mph 1020.7mb 51f 51f
5:24 5 6 mph 1020.7mb 51f 51f
5:18 3 6 mph 1020.7mb 51f 51f
5:12 5 6 mph 1020.8mb 51f 51f
5:06 2 5 mph 1020.8mb 51f 51f
5:00 2 5 mph 1020.9mb 51f 51f
4:54 3 6 mph 1020.9mb 51f 51f
4:48 3 6 mph 1020.9mb 51f 51f
4:42 5 6 mph 1021mb 51f 51f
4:36 5 6 mph 1021.1mb 51f 51f
4:30 3 6 mph 1021.1mb 51f 51f
4:24 5 7 mph 1021.1mb 51f 51f
4:18 3 6 mph 1021.1mb 51f 52f
4:12 5 6 mph 1021.1mb 51f 52f
4:06 3 5 mph 1021.2mb 51f 52f
4:00 1 2 mph 1021.2mb 51f 52f
3:54 2 3 mph 1021.3mb 51f 52f
3:48 2 3 mph 1021.4mb 51f 52f
3:42 3
mph
1021.4mb 51f 52f
3:36 2
mph
1021.4mb 51f 52f
3:30 2 3 mph 1021.4mb 51f 52f
3:24 2 3 mph 1021.3mb 51f 52f
3:18 1 2 mph 1021.4mb 51f 52f
3:12 2
mph
1021.4mb 51f 52f
3:06 2 3 mph 1021.4mb 51f 52f
3:00 5
mph
1021.3mb 51f 52f
2:54 1 2 mph 1021.3mb 51f 53f
2:48  -  3 mph 1021.4mb 51f 53f
2:42 3 5 mph 1021.4mb 51f 53f
2:36 3 6 mph 1021.7mb 51f 53f
2:30 2 3 mph 1021.7mb 51f 53f
2:24 3 5 mph 1021.6mb 51f 53f
2:18 3 7 mph 1021.5mb 51f 53f
2:12 5 8 mph 1021.6mb 51f 53f
2:06 3 6 mph 1021.6mb 51f 53f
2:00 3 5 mph 1021.7mb 51f 53f
1:54 2 3 mph 1021.8mb 51f 53f
1:48 2 3 mph 1021.8mb 51f 53f
1:42 3 6 mph 1021.8mb 51f 53f
1:30 3 6 mph 1021.8mb 51f 53f
1:24 3 6 mph 1021.9mb 51f 53f
1:18 5
mph
1021.8mb 51f 53f
1:12 3 6 mph 1021.9mb 51f 53f
1:06 6
mph
1021.9mb 51f 53f
1:00 5 6 mph 1021.9mb 51f 53f
12:54 3 5 mph 1021.9mb 51f 53f
12:48 3 5 mph 1021.9mb 51f 53f
12:42 3 6 mph 1022.1mb 51f 54f
12:36 5 6 mph 1022.1mb 51f 54f
12:30 3 6 mph 1022.1mb 51f 54f
12:24 3 6 mph 1022.3mb 51f 54f
12:18 5 7 mph 1022.2mb 51f 54f
12:00 5 6 mph 1022.3mb 51f 53f
dom 03/29 11:48 3 6 mph 1022.5mb 51f 53f
11:24 5 6 mph 1022.5mb 51f 53f
10:54 5 7 mph 1022.7mb 51f 54f
10:48 6 7 mph 1022.8mb 51f 54f
10:42 3 6 mph 1022.8mb 51f 53f
10:36 5 6 mph 1022.8mb 51f 53f
10:30 3 6 mph 1022.7mb 51f 53f
10:24 3 5 mph 1022.7mb 51f 53f
10:18 2 3 mph 1022.7mb 51f 53f
10:12 3 5 mph 1022.7mb 51f 53f
10:06 3
mph
1022.7mb 51f 53f
10:00 2
mph
1022.7mb 51f 53f
9:54  -  1 mph 1022.7mb 51f 53f
9:48 2 6 mph 1022.8mb 51f 53f
9:42 3 5 mph 1022.8mb 51f 53f
9:36 5 6 mph 1022.9mb 51f 53f
9:30 6 7 mph 1022.9mb 51f 53f
9:24 5 6 mph 1022.9mb 51f 54f
9:18 3 5 mph 1022.9mb 51f 53f
9:12 1 3 mph 1022.9mb 51f 53f
9:06 1 2 mph 1022.9mb 51f 53f
9:00 2 5 mph 1022.9mb 51f 54f
8:54 3 5 mph 1023mb 51f 54f
8:48 1 3 mph 1022.9mb 51f 53f
8:42 3 6 mph 1022.8mb 51f 53f
8:36 5 8 mph 1022.9mb 51f 53f
8:30 8 9 mph 1022.9mb 51f 54f
8:24 7 8 mph 1022.9mb 51f 53f
8:18 7 9 mph 1023mb 51f 53f
8:12 7 8 mph 1022.9mb 51f 54f
8:06 8 9 mph 1022.9mb 51f 54f
8:00 7 8 mph 1022.8mb 51f 54f
7:54 5 6 mph 1022.9mb 51f 54f
7:48 5 7 mph 1022.9mb 51f 54f
7:42 6 8 mph 1022.9mb 51f 54f
7:36 5 7 mph 1023mb 51f 54f
7:30 6 8 mph 1023mb 51f 54f
7:24 7 10 mph 1023.1mb 51f 54f
7:18 9 10 mph 1023.2mb 51f 54f
7:12 9 14 mph 1023.1mb 51f 54f
7:06 10 14 mph 1023.2mb 51f 54f
7:00 9 14 mph 1023.2mb 51f 54f
6:54 9 14 mph 1023.2mb 51f 55f
6:48 10 14 mph 1023.1mb 51f 55f
6:42 9 13 mph 1023.3mb 51f 54f
6:36 9 11 mph 1023.4mb 51f 55f
6:30 10 11 mph 1023.5mb 51f 54f
6:24 9 11 mph 1023.5mb 51f 54f
6:18 10 15 mph 1023.6mb 51f 54f
6:12 11 13 mph 1023.5mb 51f 55f
6:06 10 13 mph 1023.5mb 51f 54f
6:00 10 14 mph 1023.6mb 51f 54f
5:48 7 13 mph 1023.7mb 51f 55f
5:42 8 11 mph 1023.7mb 52f 55f
5:36 9 14 mph 1023.7mb 51f 56f
5:30 8 11 mph 1023.7mb 51f 56f
5:24 8 10 mph 1023.9mb 51f 56f
5:18 3 7 mph - - -
5:12 7 13 mph 1023.9mb 51f 56f
5:06 10 14 mph 1023.9mb 51f 56f
5:00 6 8 mph 1023.9mb 51f 55f
4:54 6 7 mph 1024mb 51f 55f
4:48 6
mph
1024mb 51f 56f
4:42 5 6 mph 1024mb 51f 56f
4:30 3 7 mph 1024.2mb 51f 56f
4:24 5 7 mph 1024.3mb 51f 55f
4:18 5 8 mph 1024.4mb 51f 55f
4:12 5 6 mph 1024.4mb 51f 55f
4:06 6 9 mph 1024.4mb 51f 55f
4:00 7 13 mph 1024.4mb 51f 55f
3:54 8 11 mph 1024.5mb 51f 55f
3:48 8 14 mph 1024.5mb 51f 55f
3:42 10 15 mph 1024.5mb 51f 55f
3:36 13 16 mph 1024.5mb 51f 55f
3:30 14 16 mph 1024.6mb 51f 55f
3:24 14 18 mph 1024.8mb 51f 55f
3:18 15 17 mph 1024.8mb 51f 55f
3:12 10 15 mph 1024.8mb 51f 55f
3:06 11 14 mph 1024.8mb 51f 55f
3:00 9 16 mph 1024.9mb 51f 55f
2:48 14 16 mph 1025mb 51f 55f
2:42 11 15 mph 1025.1mb 51f 55f
2:36 11 15 mph 1025.3mb 51f 55f
2:30 11 14 mph 1025.4mb 51f 55f
2:24 10 14 mph 1025.4mb 51f 55f
2:18 11 16 mph 1025.4mb 51f 55f
2:12 2 6 mph 1025.5mb 51f 55f
2:06 2 3 mph 1025.5mb 51f 55f
2:00 1 3 mph 1025.5mb 51f 55f
1:54 3 5 mph 1025.5mb 51f 55f
1:36 3 6 mph 1025.7mb 51f 52f
1:30 5 6 mph 1025.8mb 51f 52f
1:24 3
mph
1025.7mb 51f 52f
1:18 2 3 mph 1025.8mb 51f 52f
1:12 2 5 mph 1025.7mb 51f 52f
1:06 2 5 mph 1025.8mb 51f 52f
1:00 5
mph
1025.8mb 51f 52f
12:54 5 6 mph 1025.8mb 51f 52f
12:48 5 6 mph 1025.9mb 51f -
12:42 5 6 mph 1025.8mb 51f 51f
12:36 5
mph
1025.8mb 51f 52f
12:30 3 5 mph 1025.8mb 51f 52f
12:18 5 6 mph 1025.9mb 51f 52f
12:12 5 6 mph 1025.9mb 51f 52f
12:06 2 3 mph 1026mb 51f 53f
12:00 3 5 mph 1026.1mb 51f 52f
11:54 5
mph
1026.2mb 51f 52f
11:48 3 6 mph 1026.3mb 51f 52f
11:42 5 6 mph 1026.4mb 51f 52f
11:36 5 6 mph 1026.5mb 51f 51f
11:30 2 5 mph 1026.5mb 51f 52f
11:24 2 3 mph 1026.4mb 51f 53f
11:18 2
mph
1026.4mb 51f 53f
11:12 1 5 mph 1026.4mb 51f 53f
11:00 5 7 mph 1026.4mb 51f 51f
10:54 5 8 mph 1026.3mb 51f 51f
10:48 6 8 mph 1026.4mb 51f 51f
10:42 3 5 mph 1026.5mb 51f 51f
10:36 2 5 mph 1026.6mb 51f 51f
10:30 3 7 mph 1026.7mb 51f 50f
10:24 1 6 mph 1026.6mb 51f 50f
10:06 1 3 mph 1026.5mb 50f 49f
10:00 3 7 mph 1026.4mb 50f -
9:54 6 8 mph 1026.3mb 50f 48f
9:48 6 10 mph 1026.3mb 51f 48f
9:42 5 8 mph 1026.2mb 51f 48f
9:36 7 10 mph 1026.3mb 51f 48f
9:30 7 10 mph 1026.2mb 51f 48f
9:18 6 8 mph 1026.2mb 51f 47f
9:12 3 6 mph 1026.2mb 50f 47f
9:06 5 7 mph 1026.3mb 50f 47f
9:00 5 9 mph 1026.2mb 50f 47f
8:54 5 6 mph 1026.1mb 51f 47f
8:48 5 6 mph 1026.2mb 51f 47f
8:42 5 7 mph 1026.3mb 51f 47f
8:36 2 5 mph 1026.4mb 51f 47f
8:30 5 9 mph 1026.3mb 51f 47f
8:24 8 10 mph 1026.2mb 50f 47f
8:18 8 9 mph 1026.1mb 50f 47f
8:12 9 11 mph 1026.1mb 50f 47f
8:06 7 10 mph 1026.1mb 50f 47f
8:00 6 8 mph 1026.1mb 50f 47f
7:54 3 8 mph 1026.2mb 50f 47f
7:48 2 7 mph 1026.2mb 50f 47f
7:42 3 7 mph 1026.2mb 51f 47f
7:30  -  2 mph 1026.3mb 51f 46f
7:24 3 5 mph 1026.3mb 51f 46f
7:18 3 5 mph 1026.2mb 51f 46f
7:12 2 5 mph 1026.2mb 51f 46f
7:00 2 3 mph 1026.2mb 51f 46f
6:54  -  2 mph 1026.2mb 51f 46f
6:48 2
mph
1026.2mb 51f 46f
6:42 1 2 mph 1026.1mb 51f 46f
6:36 2
mph
1026.1mb 51f 46f
6:30 1 2 mph 1026.2mb 51f 46f
6:24 3 6 mph 1026.1mb 51f 46f
6:18 5 6 mph 1025.9mb 51f 46f
6:12 3 5 mph 1025.9mb 51f 47f
6:06 1 2 mph 1026mb 51f 46f
6:00  -  2 mph 1026mb 51f 46f
5:54 1 3 mph 1026mb 51f 46f
5:48 3 5 mph 1026mb 51f 47f
5:42 3 6 mph 1026.1mb 51f 47f
5:36 6 8 mph 1026.1mb 51f 47f
5:30 7 8 mph 1026.1mb 51f 47f
5:24 6 8 mph 1026.1mb 51f 47f
5:18 7 10 mph 1026.1mb 51f 47f
5:12 7 9 mph 1026.1mb 51f 47f
5:06 6 7 mph 1026.2mb 51f 47f
5:00 6 7 mph 1026.2mb 51f 47f
4:54 5 7 mph 1026.1mb 51f 47f
4:48 5 7 mph 1026.4mb 51f 47f
4:42 5 7 mph 1026.4mb 51f 47f
4:36  -  mph 1026.6mb 51f 47f
4:30  -  mph 1026.5mb 51f 47f
4:24  -  mph 1026.6mb 51f -
4:18  -  mph 1026.4mb - -
sáb 03/28 10:36 1 3 mph 1028.2mb 51f 50f
10:30 3 5 mph 1028.3mb 51f 50f
10:24 3 5 mph 1028.2mb 51f 50f
10:18 3 6 mph 1028.2mb 51f 50f
10:12 3 5 mph 1028.3mb 51f 50f
10:06 2 6 mph 1028.3mb 51f 50f
10:00 5 6 mph 1028.2mb 51f 51f
9:54 5
mph
1028.2mb 51f 51f
9:48 3 5 mph 1028.1mb 51f 51f
9:42 3 5 mph 1028mb 51f 52f
9:36 2 5 mph 1028mb 51f 51f
9:30 3 5 mph 1028.1mb 51f 51f
9:24 2 5 mph 1028.2mb 51f 51f
9:18  -  2 mph 1028.2mb 51f 51f
9:12 2 3 mph 1028.2mb 51f 51f
8:54 3
mph
1028.3mb 51f 52f
8:48 2 3 mph 1028.3mb 51f 52f
8:42 3 5 mph 1028.2mb 51f 52f
8:36 1 2 mph 1028.2mb 51f 52f
8:30  -  1 mph 1028.4mb 51f 52f
8:24 2 3 mph 1028.3mb 51f 52f
8:18 2 3 mph - - -
8:12 1 2 mph 1028.1mb 51f 52f
8:06  -  1 mph 1028.2mb 51f 52f
8:00 2 3 mph 1028.1mb 51f 53f
7:54 2 6 mph 1028.1mb 51f 52f
7:48 2 6 mph 1028mb 51f -
7:42 5 9 mph 1028mb 51f 52f
7:36 7 9 mph 1028.2mb 51f 53f
7:30 8 9 mph 1028.3mb 51f 53f
7:24 6 9 mph 1028.4mb 51f 53f
7:18 8 11 mph 1028.3mb 51f 53f
7:12 10 14 mph 1028.3mb 51f 53f
7:06 8 14 mph 1028.5mb 51f 53f
7:00 8 10 mph 1028.6mb 51f 53f
6:54 10 14 mph 1028.5mb 51f 53f
6:48 8 11 mph 1028.6mb 51f 53f
6:42 7 14 mph 1028.7mb 51f 53f
6:36 11 15 mph 1028.6mb 51f 53f
6:30 11 14 mph 1028.8mb 51f 53f
6:24 9 14 mph 1028.8mb 51f 53f
6:18 9 14 mph 1028.7mb 51f 53f
6:12 9 11 mph 1028.8mb 51f 53f
6:06 10 16 mph 1028.7mb 51f 54f
6:00 9 11 mph 1028.6mb 51f 53f
5:54 9 15 mph 1028.6mb 51f 53f
5:48 10 14 mph 1028.8mb 51f 53f
5:42 10 16 mph 1028.9mb 51f 53f
5:36 11 17 mph 1029mb 51f 53f
5:30 14 16 mph 1029.1mb 51f 53f
5:24 14 17 mph 1029.2mb 52f 53f
5:18 14 17 mph 1029.3mb 52f 54f
5:12 10 16 mph 1029.5mb 51f 53f
5:06 14 17 mph 1029.6mb 51f 54f
5:00 11 13 mph 1029.5mb 52f 54f
4:54 11 15 mph 1029.4mb 52f 54f
4:48 14 16 mph 1029.5mb 51f 54f
4:42 14 17 mph 1029.4mb 51f 54f
4:36 15 18 mph 1029.3mb 52f 55f
4:30 11 16 mph 1029.2mb 52f 55f
4:24 14 16 mph 1029.2mb 51f 55f
4:18 14 18 mph 1029.2mb 51f 55f
4:12 14 17 mph 1029.1mb 52f 55f
4:06 11 15 mph 1029.1mb 52f 55f
4:00 9 16 mph 1029.1mb 51f 55f
3:54 11 15 mph 1029mb 51f 55f
3:48 9 16 mph 1029.1mb 51f 55f
3:42 13 18 mph 1029.1mb 51f 55f
3:36 11 20 mph 1028.8mb 51f 55f
3:30 11 18 mph 1028.9mb 51f 55f
3:24 14 18 mph 1029.3mb 51f 54f
3:18 13 20 mph 1029.4mb 51f 54f
3:12 15 20 mph 1029.2mb 51f 54f
3:06 11 17 mph 1029.2mb 51f 55f
3:00 14 20 mph 1029.3mb 51f 55f
2:54 15 18 mph 1029.2mb 51f 55f